This is the latest recevied weather packets stored in our database for station/object K9JVA. If no packets are shown the sender has not sent any weather packets the latest 10 day(s).
| Time | Temp. | Humidity | Pressure | Rain* | Wind** | Luminosity | Snow |
|---|---|---|---|---|---|---|---|
| 1777597489 | 10.56° C | 62% | 1015.1 hPa | 0 mm | - | - | - |
| 1777596143 | 11.67° C | 60% | 1015 hPa | 0 mm | - | - | - |
| 1777595124 | 12.22° C | 59% | 1015 hPa | 0 mm | - | - | - |
| 1777594525 | 12.22° C | 58% | 1014.9 hPa | 0 mm | - | - | - |
| 1777593624 | 12.78° C | 58% | 1014.9 hPa | 0 mm | - | - | - |
| 1777592725 | 12.78° C | 55% | 1014.7 hPa | 0 mm | - | - | - |
| 1777591465 | 12.78° C | 53% | 1014.6 hPa | 0 mm | - | - | - |
| 1777588487 | 13.89° C | 52% | 1015 hPa | 0 mm | - | - | - |
| 1777587884 | 14.44° C | 49% | 1015 hPa | 0 mm | - | - | - |
| 1777587446 | 15° C | 51% | 1015 hPa | 0 mm | - | - | - |
| 1777584389 | 16.67° C | 47% | 1015.1 hPa | 0 mm | - | - | - |
| 1777583788 | 17.22° C | 48% | 1015.2 hPa | 0 mm | - | - | - |
| 1777583629 | 16.67° C | 48% | 1015.2 hPa | 0 mm | - | - | - |
| 1777582768 | 17.22° C | 47% | 1015.2 hPa | 0 mm | - | - | - |
| 1777581568 | 17.78° C | 45% | 1015.5 hPa | 0 mm | - | - | - |
| 1777579709 | 18.33° C | 49% | 1015.5 hPa | 0 mm | - | - | - |
| 1777577910 | 18.89° C | 46% | 1015.7 hPa | 0 mm | - | - | - |
| 1777577610 | 17.78° C | 49% | 1015.8 hPa | 0 mm | - | - | - |
| 1777575990 | 18.33° C | 45% | 1015.9 hPa | 0 mm | - | - | - |
| 1777575829 | 19.44° C | 47% | 1015.9 hPa | 0 mm | - | - | - |
| 1777575368 | 18.33° C | 45% | 1016.1 hPa | 0 mm | - | - | - |
| 1777572631 | 18.33° C | 48% | 1016.3 hPa | 0 mm | - | - | - |
| 1777567353 | 17.22° C | 54% | 1016.7 hPa | 0 mm | - | - | - |
| 1777566895 | 16.67° C | 56% | 1016.9 hPa | 0 mm | - | - | - |
| 1777564234 | 15.56° C | 62% | 1017.2 hPa | 0 mm | - | - | - |
* Rain since midnight (hover to see other rain measurements)
** Current wind speed in m/s (hover to see current wind gust speed)